Blue Grass (LEX)

 

Airport Diagram
Current Weather/Forecast (MVFR Conditions)
METAR KLEX 271454Z 22011KT 10SM SCT015 BKN022 BKN040 17/13 A2982 RMK AO2 RAE02 SLP093 P0000 60000 T01720133 58003
TAF KLEX 271300Z 2713/2812 19008KT P6SM VCSH BKN018 FM271400 22010KT P6SM VCSH BKN035 FM271500 22010G18KT P6SM VCSH BKN026 FM271800 24012KT P6SM VCTS BKN027CB FM272100 25011KT P6SM BKN060 FM281000 29006KT P6SM SCT014

Airport Information

All Charts
General
Chart Name View
AIRPORT DIAGRAM
TAKEOFF MINIMUMS
ALTERNATE MINIMUMS
HOT SPOT

Arrivals
Chart Name Download
CLEGG FIVE

Approaches
Chart Name Download
ILS OR LOC RWY 04
ILS OR LOC RWY 22
RNAV (GPS) RWY 04
RNAV (GPS) RWY 09
RNAV (GPS) RWY 22
RNAV (GPS) RWY 27
VOR-A


Airport Statistics
Departures Arrivals Local
All Collected Stats since June 2016: 748 729 45
2022 Stats: 115 137 13
May Stats: 10 16 0

Inbound Traffic (Arrivals) - 0

No inbound traffic.


Outbound Traffic (Departures) - 0

No outbound traffic.


Local Traffic (Pattern) - 0

No local traffic.